createdAt,value
2023-03-30T00:02:18.985Z,3.14
2023-03-30T00:05:27.731Z,3.15
2023-03-30T00:08:55.667Z,3.13
2023-03-30T00:12:23.590Z,3.13
2023-03-30T00:15:51.532Z,3.14
2023-03-30T00:19:19.598Z,3.11
2023-03-30T00:22:47.423Z,3.14
2023-03-30T00:26:16.597Z,3.05
2023-03-30T00:29:46.945Z,3.03
2023-03-30T00:33:14.670Z,3.08
2023-03-30T00:36:42.535Z,2.93
2023-03-30T00:40:11.888Z,2.88
2023-03-30T00:43:39.900Z,2.87
2023-03-30T00:47:08.066Z,2.89
2023-03-30T00:50:35.932Z,2.96
2023-03-30T00:54:04.382Z,2.95
2023-03-30T00:57:32.273Z,2.96
2023-03-30T01:01:00.449Z,2.98
2023-03-30T01:04:28.420Z,2.99
2023-03-30T01:07:37.592Z,2.97
2023-03-30T01:11:05.903Z,2.99
2023-03-30T01:14:14.731Z,3.08
2023-03-30T01:17:42.562Z,3.09
2023-03-30T01:21:10.267Z,3.11
2023-03-30T01:24:38.125Z,3.12
2023-03-30T01:28:06.167Z,3.14
2023-03-30T01:31:34.090Z,3.19
2023-03-30T01:35:02.076Z,3.20
2023-03-30T01:38:29.871Z,3.17
2023-03-30T01:41:57.735Z,3.08
2023-03-30T01:44:28.267Z,3.07
2023-03-30T01:47:56.203Z,3.09
2023-03-30T01:51:24.418Z,3.08
2023-03-30T01:54:52.414Z,3.09
2023-03-30T01:58:20.197Z,3.07
2023-03-30T02:01:48.423Z,2.99
2023-03-30T02:05:17.497Z,2.96
2023-03-30T02:08:45.386Z,2.97
2023-03-30T02:12:13.243Z,2.99
2023-03-30T02:15:41.328Z,3.04
2023-03-30T02:19:09.284Z,3.08
2023-03-30T02:22:37.459Z,3.14
2023-03-30T02:26:05.535Z,3.14
2023-03-30T02:29:33.564Z,3.17
2023-03-30T02:32:42.814Z,3.19
2023-03-30T02:36:10.543Z,3.21
2023-03-30T02:39:38.537Z,3.21
2023-03-30T02:43:06.714Z,3.23
2023-03-30T02:46:34.663Z,3.22
2023-03-30T02:49:43.498Z,3.19
2023-03-30T02:52:52.740Z,3.16
2023-03-30T02:56:20.633Z,3.12
2023-03-30T02:59:48.470Z,3.10
2023-03-30T03:02:57.340Z,3.08
2023-03-30T03:06:25.177Z,2.95
2023-03-30T03:09:53.134Z,2.76
2023-03-30T03:13:21.162Z,2.62
2023-03-30T03:16:30.414Z,2.56
2023-03-30T03:19:50.797Z,2.56
2023-03-30T03:23:18.792Z,2.58
2023-03-30T03:26:46.617Z,2.60
2023-03-30T03:30:14.445Z,2.65
2023-03-30T03:33:42.559Z,2.69
2023-03-30T03:37:09.390Z,2.73
2023-03-30T03:40:18.134Z,2.77
2023-03-30T03:43:45.944Z,2.72
2023-03-30T03:46:54.445Z,2.73
2023-03-30T03:50:22.668Z,2.73
2023-03-30T03:53:50.639Z,2.65
2023-03-30T03:57:18.576Z,2.55
2023-03-30T04:00:26.715Z,2.42
2023-03-30T04:03:35.659Z,2.33
2023-03-30T04:06:44.460Z,2.21
2023-03-30T04:10:12.506Z,2.05
2023-03-30T04:13:28.956Z,2.01
2023-03-30T04:16:59.909Z,1.98
2023-03-30T04:20:39.841Z,1.95
2023-03-30T04:24:12.088Z,1.97
2023-03-30T04:27:52.562Z,2.03
2023-03-30T04:31:23.116Z,2.07
2023-03-30T04:34:57.169Z,2.07
2023-03-30T04:38:23.981Z,2.09
2023-03-30T04:41:54.843Z,2.13
2023-03-30T04:45:25.792Z,2.24
2023-03-30T04:49:03.175Z,2.29
2023-03-30T04:52:35.876Z,2.34
2023-03-30T04:55:47.219Z,2.38
2023-03-30T04:58:55.463Z,2.46
2023-03-30T05:02:26.148Z,2.49
2023-03-30T05:06:12.970Z,2.54
2023-03-30T05:09:20.649Z,2.60
2023-03-30T05:12:47.294Z,2.60
2023-03-30T05:16:21.347Z,2.62
2023-03-30T05:19:55.395Z,2.62
2023-03-30T05:23:23.593Z,2.64
2023-03-30T05:26:57.677Z,2.66
2023-03-30T05:30:31.338Z,2.67
2023-03-30T05:33:58.320Z,2.75
2023-03-30T05:37:31.864Z,2.81
2023-03-30T05:41:11.732Z,2.90
2023-03-30T05:44:45.956Z,3.06
2023-03-30T05:48:12.933Z,3.19
2023-03-30T05:51:41.103Z,3.28
2023-03-30T05:55:12.001Z,3.48
2023-03-30T05:58:47.377Z,3.72
2023-03-30T06:02:18.498Z,3.92
2023-03-30T06:05:46.463Z,4.05
2023-03-30T06:08:55.223Z,4.14
2023-03-30T06:12:23.172Z,4.20
2023-03-30T06:15:51.265Z,4.31
2023-03-30T06:19:19.111Z,4.43
2023-03-30T06:22:48.303Z,4.54
2023-03-30T06:26:16.386Z,4.80
2023-03-30T06:29:25.000Z,4.94
2023-03-30T06:32:52.991Z,5.16
2023-03-30T06:36:44.191Z,5.35
2023-03-30T06:39:55.500Z,5.57
2023-03-30T06:43:23.285Z,5.80
2023-03-30T06:46:51.084Z,5.91
2023-03-30T06:49:59.934Z,6.02
2023-03-30T06:53:13.656Z,6.19
2023-03-30T06:56:43.358Z,6.41
2023-03-30T07:00:11.276Z,6.66
2023-03-30T07:03:38.922Z,6.90
2023-03-30T07:07:07.195Z,7.14
2023-03-30T07:10:35.088Z,7.16
2023-03-30T07:14:03.214Z,7.48
2023-03-30T07:17:31.444Z,7.72
2023-03-30T07:20:40.510Z,7.88
2023-03-30T07:24:08.676Z,8.05
2023-03-30T07:27:36.740Z,8.22
2023-03-30T07:30:46.673Z,8.37
2023-03-30T07:34:14.335Z,8.32
2023-03-30T07:37:22.772Z,8.27
2023-03-30T07:40:51.973Z,8.53
2023-03-30T07:44:19.799Z,8.84
2023-03-30T07:47:47.922Z,8.95
2023-03-30T07:51:16.034Z,9.25
2023-03-30T07:54:49.962Z,9.48
2023-03-30T07:58:20.753Z,9.51
2023-03-30T08:01:29.302Z,9.48
2023-03-30T08:05:09.889Z,9.55
2023-03-30T08:08:49.629Z,9.69
2023-03-30T08:12:17.669Z,9.92
2023-03-30T08:15:46.460Z,9.91
2023-03-30T08:19:15.865Z,10.06
2023-03-30T08:22:43.698Z,10.12
2023-03-30T08:26:13.928Z,10.48
2023-03-30T08:29:41.662Z,10.74
2023-03-30T08:33:09.671Z,10.80
2023-03-30T08:36:37.425Z,10.94
2023-03-30T08:40:05.650Z,11.02
2023-03-30T08:43:33.586Z,11.22
2023-03-30T08:47:01.483Z,11.40
2023-03-30T08:50:29.569Z,11.52
2023-03-30T08:53:38.520Z,11.38
2023-03-30T08:57:07.029Z,11.50
2023-03-30T09:00:35.187Z,11.70
2023-03-30T09:04:03.330Z,11.92
2023-03-30T09:07:31.208Z,12.20
2023-03-30T09:10:59.220Z,12.65
2023-03-30T09:14:27.301Z,12.93
2023-03-30T09:17:55.500Z,13.19
2023-03-30T09:21:23.427Z,13.24
2023-03-30T09:24:51.727Z,13.25
2023-03-30T09:28:20.336Z,13.14
2023-03-30T09:31:48.313Z,13.20
2023-03-30T09:35:16.112Z,13.41
2023-03-30T09:38:44.090Z,13.51
2023-03-30T09:42:12.131Z,13.69
2023-03-30T09:45:40.054Z,13.81
2023-03-30T09:48:09.725Z,13.85
2023-03-30T09:51:37.563Z,14.00
2023-03-30T09:55:05.927Z,14.23
2023-03-30T09:58:33.960Z,14.28
2023-03-30T10:02:02.301Z,14.33
2023-03-30T10:05:30.116Z,14.28
2023-03-30T10:08:58.181Z,14.15
2023-03-30T10:12:25.974Z,14.51
2023-03-30T10:15:54.226Z,14.75
2023-03-30T10:19:22.545Z,14.95
2023-03-30T10:22:50.553Z,14.85
2023-03-30T10:26:18.606Z,15.24
2023-03-30T10:29:46.964Z,15.24
2023-03-30T10:33:14.766Z,15.48
2023-03-30T10:36:42.882Z,15.54
2023-03-30T10:40:10.879Z,15.70
2023-03-30T10:43:38.748Z,15.48
2023-03-30T10:47:06.729Z,15.96
2023-03-30T10:50:34.844Z,16.30
2023-03-30T10:54:02.809Z,16.34
2023-03-30T10:57:31.004Z,16.29
2023-03-30T11:00:58.665Z,16.40
2023-03-30T11:04:20.512Z,16.64
2023-03-30T11:07:35.320Z,16.61
2023-03-30T11:11:03.586Z,16.06
2023-03-30T11:14:31.537Z,15.83
2023-03-30T11:17:59.534Z,15.55
2023-03-30T11:21:28.308Z,15.31
2023-03-30T11:24:56.449Z,15.42
2023-03-30T11:28:24.501Z,15.26
2023-03-30T11:31:53.055Z,15.28
2023-03-30T11:35:21.038Z,15.43
2023-03-30T11:38:50.412Z,15.51
2023-03-30T11:42:18.598Z,15.56
2023-03-30T11:45:46.982Z,15.56
2023-03-30T11:49:15.777Z,15.49
2023-03-30T11:52:43.973Z,15.46
2023-03-30T11:56:11.917Z,15.29
2023-03-30T11:59:39.934Z,15.22
2023-03-30T12:03:08.523Z,15.07
2023-03-30T12:06:36.714Z,15.02
2023-03-30T12:10:07.637Z,14.94
2023-03-30T12:13:41.273Z,14.83
2023-03-30T12:17:00.618Z,14.77
2023-03-30T12:20:29.329Z,14.61
2023-03-30T12:23:58.725Z,14.51
2023-03-30T12:27:28.643Z,14.48
2023-03-30T12:30:56.655Z,14.28
2023-03-30T12:34:05.453Z,14.27
2023-03-30T12:37:33.301Z,14.28
2023-03-30T12:41:01.201Z,14.20
2023-03-30T12:44:29.103Z,14.24
2023-03-30T12:47:57.365Z,14.36
2023-03-30T12:51:13.394Z,14.44
2023-03-30T12:54:22.122Z,14.54
2023-03-30T12:57:49.921Z,14.58
2023-03-30T13:00:59.001Z,14.79
2023-03-30T13:03:55.485Z,14.88
2023-03-30T13:07:07.186Z,14.93
2023-03-30T13:10:35.019Z,15.07
2023-03-30T13:13:43.981Z,15.07
2023-03-30T13:17:11.801Z,15.23
2023-03-30T13:20:29.669Z,15.47
2023-03-30T13:23:15.623Z,15.55
2023-03-30T13:26:04.544Z,15.69
2023-03-30T13:29:32.247Z,16.04
2023-03-30T13:32:49.150Z,16.38
2023-03-30T13:35:42.399Z,16.38
2023-03-30T13:38:33.614Z,16.50
2023-03-30T13:41:50.898Z,16.48
2023-03-30T13:45:18.785Z,16.39
2023-03-30T13:48:46.681Z,16.53
2023-03-30T13:52:14.819Z,16.79
2023-03-30T13:55:42.891Z,17.05
2023-03-30T13:59:10.626Z,17.74
2023-03-30T14:02:47.802Z,18.21
2023-03-30T14:06:15.719Z,19.12
2023-03-30T14:09:24.990Z,19.93
2023-03-30T14:12:33.728Z,20.81
2023-03-30T14:16:02.927Z,21.29
2023-03-30T14:19:13.155Z,21.94
2023-03-30T14:22:43.806Z,22.04
2023-03-30T14:26:13.641Z,22.52
2023-03-30T14:29:41.949Z,22.74
2023-03-30T14:33:09.952Z,23.08
2023-03-30T14:35:58.721Z,23.17
2023-03-30T14:39:26.769Z,23.31
2023-03-30T14:42:54.608Z,23.81
2023-03-30T14:46:23.624Z,24.01
2023-03-30T14:49:51.635Z,23.77
2023-03-30T14:53:22.131Z,23.62
2023-03-30T14:56:50.167Z,23.95
2023-03-30T15:00:18.437Z,23.53
2023-03-30T15:03:33.381Z,23.70
2023-03-30T15:07:02.251Z,23.34
2023-03-30T15:10:11.627Z,23.91
2023-03-30T15:13:39.944Z,24.00
2023-03-30T15:17:07.869Z,24.20
2023-03-30T15:20:35.637Z,24.00
2023-03-30T15:23:45.921Z,24.47
2023-03-30T15:27:13.845Z,24.51
2023-03-30T15:30:41.653Z,23.72
2023-03-30T15:34:09.853Z,23.72
2023-03-30T15:37:37.694Z,22.93
2023-03-30T15:40:46.273Z,22.86
2023-03-30T15:44:14.709Z,21.86
2023-03-30T15:47:42.639Z,20.94
2023-03-30T15:51:10.467Z,20.39
2023-03-30T15:54:38.566Z,19.77
2023-03-30T15:58:06.898Z,19.68
2023-03-30T16:01:34.943Z,19.35
2023-03-30T16:05:03.031Z,18.86
2023-03-30T16:08:31.021Z,18.48
2023-03-30T16:11:59.071Z,17.96
2023-03-30T16:15:27.012Z,17.45
2023-03-30T16:18:55.055Z,17.19
2023-03-30T16:22:06.272Z,16.96
2023-03-30T16:25:44.806Z,16.65
2023-03-30T16:28:43.123Z,16.27
2023-03-30T16:31:51.617Z,16.02
2023-03-30T16:35:04.946Z,15.81
2023-03-30T16:38:36.653Z,15.59
2023-03-30T16:42:06.830Z,15.37
2023-03-30T16:44:58.552Z,15.17
2023-03-30T16:48:27.909Z,15.00
2023-03-30T16:51:57.865Z,14.78
2023-03-30T16:55:23.313Z,14.66
2023-03-30T16:58:32.256Z,14.55
2023-03-30T17:02:00.736Z,14.45
2023-03-30T17:05:28.765Z,14.34
2023-03-30T17:08:56.340Z,14.22
2023-03-30T17:12:24.365Z,14.13
2023-03-30T17:15:52.814Z,13.98
2023-03-30T17:19:21.859Z,13.88
2023-03-30T17:22:52.187Z,13.81
2023-03-30T17:26:25.915Z,13.74
2023-03-30T17:29:53.630Z,13.65
2023-03-30T17:33:21.619Z,13.56
2023-03-30T17:36:51.756Z,13.49
2023-03-30T17:40:19.497Z,13.41
2023-03-30T17:43:50.102Z,13.29
2023-03-30T17:50:42.126Z,13.14
2023-03-30T17:54:10.132Z,13.09
2023-03-30T17:57:18.323Z,13.05
2023-03-30T18:04:11.904Z,12.97
2023-03-30T18:07:41.231Z,12.94
2023-03-30T18:11:09.327Z,12.90
2023-03-30T18:14:18.164Z,12.87
2023-03-30T18:17:46.135Z,12.85
2023-03-30T18:21:13.982Z,12.83
2023-03-30T18:24:21.695Z,12.82
2023-03-30T18:27:49.902Z,12.84
2023-03-30T18:31:17.826Z,12.86
2023-03-30T18:34:46.548Z,12.85
2023-03-30T18:38:14.876Z,12.84
2023-03-30T18:41:44.806Z,12.80
2023-03-30T18:45:14.097Z,12.81
2023-03-30T18:48:42.230Z,12.82
2023-03-30T18:52:09.807Z,12.81
2023-03-30T18:55:37.808Z,12.79
2023-03-30T18:58:46.866Z,12.77
2023-03-30T19:01:55.667Z,12.74
2023-03-30T19:05:24.779Z,12.70
2023-03-30T19:08:52.931Z,12.65
2023-03-30T19:12:01.645Z,12.60
2023-03-30T19:15:09.673Z,12.58
2023-03-30T19:18:18.759Z,12.52
2023-03-30T19:21:46.601Z,12.48
2023-03-30T19:25:14.659Z,12.48
2023-03-30T19:28:42.545Z,12.47
2023-03-30T19:31:52.016Z,12.46
2023-03-30T19:35:19.851Z,12.45
2023-03-30T19:38:48.183Z,12.43
2023-03-30T19:42:15.963Z,12.44
2023-03-30T19:45:25.295Z,12.46
2023-03-30T19:48:53.585Z,12.46
2023-03-30T19:52:21.479Z,12.45
2023-03-30T19:55:49.917Z,12.44
2023-03-30T19:59:20.481Z,12.41
2023-03-30T20:02:47.463Z,12.39
2023-03-30T20:06:15.408Z,12.41
2023-03-30T20:09:48.353Z,12.40
2023-03-30T20:13:12.898Z,12.38
2023-03-30T20:16:21.899Z,12.38
2023-03-30T20:19:49.965Z,12.38
2023-03-30T20:22:57.795Z,12.38
2023-03-30T20:26:25.620Z,12.36
2023-03-30T20:29:53.388Z,12.33
2023-03-30T20:33:22.597Z,12.31
2023-03-30T20:36:32.117Z,12.31
2023-03-30T20:39:54.083Z,12.32
2023-03-30T20:43:21.918Z,12.30
2023-03-30T20:46:12.077Z,12.30
2023-03-30T20:49:41.447Z,12.29
2023-03-30T20:52:48.668Z,12.26
2023-03-30T20:56:16.378Z,12.26
2023-03-30T20:59:44.608Z,12.25
2023-03-30T21:03:12.662Z,12.27
2023-03-30T21:06:40.345Z,12.27
2023-03-30T21:10:08.308Z,12.26
2023-03-30T21:13:38.713Z,12.26
2023-03-30T21:16:46.935Z,12.22
2023-03-30T21:20:14.883Z,12.19
2023-03-30T21:23:43.034Z,12.23
2023-03-30T21:27:11.020Z,12.18
2023-03-30T21:30:38.885Z,12.16
2023-03-30T21:34:06.777Z,12.11
2023-03-30T21:37:34.766Z,12.10
2023-03-30T21:41:02.511Z,12.09
2023-03-30T21:44:30.299Z,12.04
2023-03-30T21:47:59.615Z,11.99
2023-03-30T21:51:27.499Z,11.84
2023-03-30T21:54:55.463Z,11.80
2023-03-30T21:58:23.328Z,11.62
2023-03-30T22:01:51.449Z,11.57
2023-03-30T22:05:19.408Z,11.53
2023-03-30T22:08:47.471Z,11.35
2023-03-30T22:12:15.443Z,11.09
2023-03-30T22:15:44.944Z,11.00
2023-03-30T22:19:13.035Z,10.83
2023-03-30T22:22:40.890Z,10.74
2023-03-30T22:26:09.137Z,10.67
2023-03-30T22:29:36.767Z,10.65
2023-03-30T22:32:45.539Z,10.62
2023-03-30T22:35:34.631Z,10.57
2023-03-30T22:39:02.339Z,10.53
2023-03-30T22:42:10.895Z,10.51
2023-03-30T22:45:38.773Z,10.52
2023-03-30T22:49:06.584Z,10.51
2023-03-30T22:52:34.511Z,10.50
2023-03-30T22:56:02.641Z,10.46
2023-03-30T22:59:30.412Z,10.50
2023-03-30T23:02:58.137Z,10.47
2023-03-30T23:06:26.362Z,10.46
2023-03-30T23:09:55.058Z,10.44
2023-03-30T23:12:43.330Z,10.45
2023-03-30T23:16:11.208Z,10.45
2023-03-30T23:19:38.942Z,10.42
2023-03-30T23:22:48.600Z,10.38
2023-03-30T23:26:16.701Z,10.37
2023-03-30T23:29:45.019Z,10.35
2023-03-30T23:33:13.234Z,10.35
2023-03-30T23:36:41.077Z,10.32
2023-03-30T23:40:09.013Z,10.34
2023-03-30T23:43:18.032Z,10.39
2023-03-30T23:46:45.880Z,10.40
2023-03-30T23:49:53.955Z,10.44
2023-03-30T23:53:02.989Z,10.44
2023-03-30T23:56:30.861Z,10.45
2023-03-30T23:59:58.775Z,10.47
